sensor_id;sensor_type;location;lat;lon;timestamp;P1;durP1;ratioP1;P2;durP2;ratioP2
1258;SDS011;619;51.472;6.628;2023-04-06T00:00:14;12.13;;;10.73;;
1258;SDS011;619;51.472;6.628;2023-04-06T00:02:40;13.60;;;11.43;;
1258;SDS011;619;51.472;6.628;2023-04-06T00:05:11;13.50;;;11.17;;
1258;SDS011;619;51.472;6.628;2023-04-06T00:07:37;14.60;;;11.90;;
1258;SDS011;619;51.472;6.628;2023-04-06T00:10:03;14.87;;;12.30;;
1258;SDS011;619;51.472;6.628;2023-04-06T00:12:32;14.20;;;12.73;;
1258;SDS011;619;51.472;6.628;2023-04-06T00:15:00;15.00;;;12.60;;
1258;SDS011;619;51.472;6.628;2023-04-06T00:17:27;14.00;;;11.40;;
1258;SDS011;619;51.472;6.628;2023-04-06T00:19:57;14.00;;;10.90;;
1258;SDS011;619;51.472;6.628;2023-04-06T00:22:23;14.33;;;12.63;;
1258;SDS011;619;51.472;6.628;2023-04-06T00:24:49;12.80;;;11.50;;
1258;SDS011;619;51.472;6.628;2023-04-06T00:27:15;13.10;;;10.80;;
1258;SDS011;619;51.472;6.628;2023-04-06T00:29:44;13.17;;;10.90;;
1258;SDS011;619;51.472;6.628;2023-04-06T00:32:12;15.37;;;11.77;;
1258;SDS011;619;51.472;6.628;2023-04-06T00:34:38;14.37;;;11.63;;
1258;SDS011;619;51.472;6.628;2023-04-06T00:37:07;14.43;;;11.40;;
1258;SDS011;619;51.472;6.628;2023-04-06T00:39:33;17.00;;;11.70;;
1258;SDS011;619;51.472;6.628;2023-04-06T00:41:59;16.07;;;11.43;;
1258;SDS011;619;51.472;6.628;2023-04-06T00:44:25;12.90;;;11.17;;
1258;SDS011;619;51.472;6.628;2023-04-06T00:46:53;12.70;;;11.10;;
1258;SDS011;619;51.472;6.628;2023-04-06T00:49:19;13.67;;;11.83;;
1258;SDS011;619;51.472;6.628;2023-04-06T00:51:45;13.67;;;10.83;;
1258;SDS011;619;51.472;6.628;2023-04-06T00:54:11;15.97;;;12.47;;
1258;SDS011;619;51.472;6.628;2023-04-06T00:56:41;11.50;;;10.40;;
1258;SDS011;619;51.472;6.628;2023-04-06T00:59:08;12.93;;;11.43;;
1258;SDS011;619;51.472;6.628;2023-04-06T01:01:36;13.57;;;11.10;;
1258;SDS011;619;51.472;6.628;2023-04-06T01:04:05;16.53;;;10.47;;
1258;SDS011;619;51.472;6.628;2023-04-06T01:06:31;13.30;;;10.73;;
1258;SDS011;619;51.472;6.628;2023-04-06T01:08:57;12.80;;;11.47;;
1258;SDS011;619;51.472;6.628;2023-04-06T01:11:23;12.17;;;10.50;;
1258;SDS011;619;51.472;6.628;2023-04-06T01:13:49;11.43;;;10.23;;
1258;SDS011;619;51.472;6.628;2023-04-06T01:16:15;15.97;;;11.47;;
1258;SDS011;619;51.472;6.628;2023-04-06T01:18:41;15.30;;;10.97;;
1258;SDS011;619;51.472;6.628;2023-04-06T01:21:07;11.00;;;9.53;;
1258;SDS011;619;51.472;6.628;2023-04-06T01:23:41;13.43;;;11.07;;
1258;SDS011;619;51.472;6.628;2023-04-06T01:26:07;17.13;;;11.63;;
1258;SDS011;619;51.472;6.628;2023-04-06T01:28:33;13.90;;;10.53;;
1258;SDS011;619;51.472;6.628;2023-04-06T01:30:59;13.87;;;11.67;;
1258;SDS011;619;51.472;6.628;2023-04-06T01:33:25;15.87;;;12.27;;
1258;SDS011;619;51.472;6.628;2023-04-06T01:35:51;14.43;;;11.60;;
1258;SDS011;619;51.472;6.628;2023-04-06T01:38:20;16.63;;;12.83;;
1258;SDS011;619;51.472;6.628;2023-04-06T01:40:46;13.93;;;10.40;;
1258;SDS011;619;51.472;6.628;2023-04-06T01:43:12;13.30;;;11.87;;
1258;SDS011;619;51.472;6.628;2023-04-06T01:45:38;12.47;;;10.90;;
1258;SDS011;619;51.472;6.628;2023-04-06T01:48:07;14.63;;;12.03;;
1258;SDS011;619;51.472;6.628;2023-04-06T01:50:33;15.50;;;12.00;;
1258;SDS011;619;51.472;6.628;2023-04-06T01:52:59;16.80;;;12.10;;
1258;SDS011;619;51.472;6.628;2023-04-06T01:55:25;14.63;;;10.97;;
1258;SDS011;619;51.472;6.628;2023-04-06T01:57:51;13.10;;;11.20;;
1258;SDS011;619;51.472;6.628;2023-04-06T02:00:17;12.87;;;10.53;;
1258;SDS011;619;51.472;6.628;2023-04-06T02:02:43;12.97;;;10.73;;
1258;SDS011;619;51.472;6.628;2023-04-06T02:05:09;13.37;;;11.20;;
1258;SDS011;619;51.472;6.628;2023-04-06T02:07:37;16.97;;;12.07;;
1258;SDS011;619;51.472;6.628;2023-04-06T02:10:03;14.23;;;11.13;;
1258;SDS011;619;51.472;6.628;2023-04-06T02:12:30;13.77;;;10.63;;
1258;SDS011;619;51.472;6.628;2023-04-06T02:14:58;11.70;;;9.97;;
1258;SDS011;619;51.472;6.628;2023-04-06T02:17:26;13.47;;;12.00;;
1258;SDS011;619;51.472;6.628;2023-04-06T02:19:55;16.60;;;11.13;;
1258;SDS011;619;51.472;6.628;2023-04-06T02:22:23;12.50;;;10.43;;
1258;SDS011;619;51.472;6.628;2023-04-06T02:24:49;14.93;;;10.73;;
1258;SDS011;619;51.472;6.628;2023-04-06T02:27:15;13.60;;;10.30;;
1258;SDS011;619;51.472;6.628;2023-04-06T02:29:41;14.93;;;11.87;;
1258;SDS011;619;51.472;6.628;2023-04-06T02:32:07;14.30;;;10.50;;
1258;SDS011;619;51.472;6.628;2023-04-06T02:34:38;13.90;;;10.70;;
1258;SDS011;619;51.472;6.628;2023-04-06T02:37:04;15.07;;;11.10;;
1258;SDS011;619;51.472;6.628;2023-04-06T02:39:30;13.57;;;11.50;;
1258;SDS011;619;51.472;6.628;2023-04-06T02:41:56;15.43;;;11.90;;
1258;SDS011;619;51.472;6.628;2023-04-06T02:44:22;14.83;;;11.00;;
1258;SDS011;619;51.472;6.628;2023-04-06T02:46:53;13.43;;;10.33;;
1258;SDS011;619;51.472;6.628;2023-04-06T02:49:19;17.20;;;11.47;;
1258;SDS011;619;51.472;6.628;2023-04-06T02:51:49;19.17;;;10.73;;
1258;SDS011;619;51.472;6.628;2023-04-06T02:54:18;13.90;;;11.17;;
1258;SDS011;619;51.472;6.628;2023-04-06T02:56:44;15.57;;;12.10;;
1258;SDS011;619;51.472;6.628;2023-04-06T02:59:10;16.53;;;11.23;;
1258;SDS011;619;51.472;6.628;2023-04-06T03:01:36;16.07;;;11.40;;
1258;SDS011;619;51.472;6.628;2023-04-06T03:04:05;18.73;;;12.40;;
1258;SDS011;619;51.472;6.628;2023-04-06T03:06:33;18.43;;;11.63;;
1258;SDS011;619;51.472;6.628;2023-04-06T03:08:59;13.70;;;11.70;;
1258;SDS011;619;51.472;6.628;2023-04-06T03:11:25;13.13;;;11.47;;
1258;SDS011;619;51.472;6.628;2023-04-06T03:13:53;13.30;;;11.73;;
1258;SDS011;619;51.472;6.628;2023-04-06T03:16:22;16.50;;;12.43;;
1258;SDS011;619;51.472;6.628;2023-04-06T03:18:50;14.07;;;11.27;;
1258;SDS011;619;51.472;6.628;2023-04-06T03:21:16;13.90;;;11.07;;
1258;SDS011;619;51.472;6.628;2023-04-06T03:23:46;13.17;;;11.40;;
1258;SDS011;619;51.472;6.628;2023-04-06T03:26:14;19.17;;;13.23;;
1258;SDS011;619;51.472;6.628;2023-04-06T03:28:40;19.50;;;12.37;;
1258;SDS011;619;51.472;6.628;2023-04-06T03:31:06;12.70;;;11.30;;
1258;SDS011;619;51.472;6.628;2023-04-06T03:33:32;15.53;;;13.20;;
1258;SDS011;619;51.472;6.628;2023-04-06T03:35:58;16.90;;;13.87;;
1258;SDS011;619;51.472;6.628;2023-04-06T03:38:26;13.50;;;11.80;;
1258;SDS011;619;51.472;6.628;2023-04-06T03:40:55;14.40;;;12.00;;
1258;SDS011;619;51.472;6.628;2023-04-06T03:43:21;17.80;;;12.90;;
1258;SDS011;619;51.472;6.628;2023-04-06T03:45:47;20.13;;;14.70;;
1258;SDS011;619;51.472;6.628;2023-04-06T03:48:15;20.80;;;14.83;;
1258;SDS011;619;51.472;6.628;2023-04-06T03:50:41;17.20;;;13.30;;
1258;SDS011;619;51.472;6.628;2023-04-06T03:53:07;15.17;;;12.40;;
1258;SDS011;619;51.472;6.628;2023-04-06T03:55:33;20.27;;;13.27;;
1258;SDS011;619;51.472;6.628;2023-04-06T03:57:59;16.83;;;13.47;;
1258;SDS011;619;51.472;6.628;2023-04-06T04:00:26;17.90;;;14.03;;
1258;SDS011;619;51.472;6.628;2023-04-06T04:02:52;17.10;;;13.20;;
1258;SDS011;619;51.472;6.628;2023-04-06T04:05:18;16.43;;;12.77;;
1258;SDS011;619;51.472;6.628;2023-04-06T04:07:52;15.93;;;13.07;;
1258;SDS011;619;51.472;6.628;2023-04-06T04:10:18;14.80;;;12.93;;
1258;SDS011;619;51.472;6.628;2023-04-06T04:12:44;14.10;;;12.60;;
1258;SDS011;619;51.472;6.628;2023-04-06T04:15:10;13.23;;;11.83;;
1258;SDS011;619;51.472;6.628;2023-04-06T04:17:36;15.10;;;12.13;;
1258;SDS011;619;51.472;6.628;2023-04-06T04:20:02;20.43;;;12.37;;
1258;SDS011;619;51.472;6.628;2023-04-06T04:22:31;13.70;;;11.60;;
1258;SDS011;619;51.472;6.628;2023-04-06T04:24:59;15.00;;;12.00;;
1258;SDS011;619;51.472;6.628;2023-04-06T04:27:25;15.83;;;12.03;;
1258;SDS011;619;51.472;6.628;2023-04-06T04:29:51;13.07;;;11.30;;
1258;SDS011;619;51.472;6.628;2023-04-06T04:32:17;12.87;;;10.33;;
1258;SDS011;619;51.472;6.628;2023-04-06T04:34:43;15.10;;;11.10;;
1258;SDS011;619;51.472;6.628;2023-04-06T04:37:09;13.77;;;11.10;;
1258;SDS011;619;51.472;6.628;2023-04-06T04:39:35;13.20;;;11.23;;
1258;SDS011;619;51.472;6.628;2023-04-06T04:42:04;13.40;;;11.00;;
1258;SDS011;619;51.472;6.628;2023-04-06T04:44:30;13.10;;;11.67;;
1258;SDS011;619;51.472;6.628;2023-04-06T04:46:56;14.57;;;11.00;;
1258;SDS011;619;51.472;6.628;2023-04-06T04:49:22;12.07;;;10.83;;
1258;SDS011;619;51.472;6.628;2023-04-06T04:51:51;13.23;;;11.63;;
1258;SDS011;619;51.472;6.628;2023-04-06T04:54:17;11.60;;;10.40;;
1258;SDS011;619;51.472;6.628;2023-04-06T04:56:45;12.90;;;11.50;;
1258;SDS011;619;51.472;6.628;2023-04-06T04:59:11;12.10;;;10.60;;
1258;SDS011;619;51.472;6.628;2023-04-06T05:01:37;13.27;;;10.87;;
1258;SDS011;619;51.472;6.628;2023-04-06T05:04:06;12.67;;;11.17;;
1258;SDS011;619;51.472;6.628;2023-04-06T05:06:32;15.43;;;11.00;;
1258;SDS011;619;51.472;6.628;2023-04-06T05:09:00;14.90;;;11.63;;
1258;SDS011;619;51.472;6.628;2023-04-06T05:11:28;15.57;;;11.90;;
1258;SDS011;619;51.472;6.628;2023-04-06T05:13:54;15.00;;;11.40;;
1258;SDS011;619;51.472;6.628;2023-04-06T05:16:20;15.27;;;12.67;;
1258;SDS011;619;51.472;6.628;2023-04-06T05:18:47;18.57;;;12.47;;
1258;SDS011;619;51.472;6.628;2023-04-06T05:21:16;17.27;;;12.90;;
1258;SDS011;619;51.472;6.628;2023-04-06T05:23:42;13.93;;;12.40;;
1258;SDS011;619;51.472;6.628;2023-04-06T05:26:10;14.67;;;11.90;;
1258;SDS011;619;51.472;6.628;2023-04-06T05:28:38;14.83;;;11.93;;
1258;SDS011;619;51.472;6.628;2023-04-06T05:31:05;19.03;;;15.03;;
1258;SDS011;619;51.472;6.628;2023-04-06T05:33:31;19.67;;;13.60;;
1258;SDS011;619;51.472;6.628;2023-04-06T05:35:57;17.47;;;13.30;;
1258;SDS011;619;51.472;6.628;2023-04-06T05:38:25;23.17;;;12.57;;
1258;SDS011;619;51.472;6.628;2023-04-06T05:40:51;16.30;;;12.30;;
1258;SDS011;619;51.472;6.628;2023-04-06T05:43:17;16.93;;;12.53;;
1258;SDS011;619;51.472;6.628;2023-04-06T05:45:44;16.47;;;11.40;;
1258;SDS011;619;51.472;6.628;2023-04-06T05:48:10;19.33;;;11.53;;
1258;SDS011;619;51.472;6.628;2023-04-06T05:50:36;16.93;;;13.27;;
1258;SDS011;619;51.472;6.628;2023-04-06T05:53:02;13.37;;;12.00;;
1258;SDS011;619;51.472;6.628;2023-04-06T05:55:28;16.93;;;11.63;;
1258;SDS011;619;51.472;6.628;2023-04-06T05:57:59;19.47;;;11.10;;
1258;SDS011;619;51.472;6.628;2023-04-06T06:00:25;13.17;;;11.77;;
1258;SDS011;619;51.472;6.628;2023-04-06T06:02:54;15.23;;;11.03;;
1258;SDS011;619;51.472;6.628;2023-04-06T06:05:22;12.43;;;10.50;;
1258;SDS011;619;51.472;6.628;2023-04-06T06:07:48;14.47;;;10.47;;
1258;SDS011;619;51.472;6.628;2023-04-06T06:10:14;13.97;;;10.50;;
1258;SDS011;619;51.472;6.628;2023-04-06T06:12:40;14.63;;;11.40;;
1258;SDS011;619;51.472;6.628;2023-04-06T06:15:06;16.43;;;9.83;;
1258;SDS011;619;51.472;6.628;2023-04-06T06:17:37;11.03;;;9.87;;
1258;SDS011;619;51.472;6.628;2023-04-06T06:20:05;12.73;;;11.40;;
1258;SDS011;619;51.472;6.628;2023-04-06T06:22:31;14.43;;;11.90;;
1258;SDS011;619;51.472;6.628;2023-04-06T06:24:57;14.43;;;12.70;;
1258;SDS011;619;51.472;6.628;2023-04-06T06:27:25;13.13;;;10.50;;
1258;SDS011;619;51.472;6.628;2023-04-06T06:29:51;15.07;;;11.93;;
1258;SDS011;619;51.472;6.628;2023-04-06T06:32:17;13.07;;;10.47;;
1258;SDS011;619;51.472;6.628;2023-04-06T06:34:43;16.90;;;12.20;;
1258;SDS011;619;51.472;6.628;2023-04-06T06:37:09;12.37;;;11.03;;
1258;SDS011;619;51.472;6.628;2023-04-06T06:39:35;14.70;;;12.13;;
1258;SDS011;619;51.472;6.628;2023-04-06T06:42:01;15.87;;;11.30;;
1258;SDS011;619;51.472;6.628;2023-04-06T06:44:30;13.30;;;9.80;;
1258;SDS011;619;51.472;6.628;2023-04-06T06:46:56;13.30;;;10.53;;
1258;SDS011;619;51.472;6.628;2023-04-06T06:49:22;14.13;;;11.50;;
1258;SDS011;619;51.472;6.628;2023-04-06T06:51:48;12.37;;;10.53;;
1258;SDS011;619;51.472;6.628;2023-04-06T06:54:16;13.03;;;11.03;;
1258;SDS011;619;51.472;6.628;2023-04-06T06:56:42;16.00;;;12.53;;
1258;SDS011;619;51.472;6.628;2023-04-06T06:59:08;17.63;;;13.47;;
1258;SDS011;619;51.472;6.628;2023-04-06T07:01:34;16.00;;;12.17;;
1258;SDS011;619;51.472;6.628;2023-04-06T07:04:00;17.80;;;12.93;;
1258;SDS011;619;51.472;6.628;2023-04-06T07:06:26;20.23;;;13.33;;
1258;SDS011;619;51.472;6.628;2023-04-06T07:08:52;14.10;;;12.10;;
1258;SDS011;619;51.472;6.628;2023-04-06T07:11:18;16.80;;;12.70;;
1258;SDS011;619;51.472;6.628;2023-04-06T07:13:44;18.13;;;12.63;;
1258;SDS011;619;51.472;6.628;2023-04-06T07:16:10;16.80;;;12.50;;
1258;SDS011;619;51.472;6.628;2023-04-06T07:18:36;16.67;;;11.80;;
1258;SDS011;619;51.472;6.628;2023-04-06T07:21:05;14.07;;;10.50;;
1258;SDS011;619;51.472;6.628;2023-04-06T07:23:31;14.53;;;11.40;;
1258;SDS011;619;51.472;6.628;2023-04-06T07:25:57;15.30;;;10.77;;
1258;SDS011;619;51.472;6.628;2023-04-06T07:28:25;15.23;;;11.30;;
1258;SDS011;619;51.472;6.628;2023-04-06T07:30:51;14.37;;;11.70;;
1258;SDS011;619;51.472;6.628;2023-04-06T07:33:19;12.13;;;10.87;;
1258;SDS011;619;51.472;6.628;2023-04-06T07:35:45;13.50;;;10.20;;
1258;SDS011;619;51.472;6.628;2023-04-06T07:38:11;14.20;;;11.80;;
1258;SDS011;619;51.472;6.628;2023-04-06T07:40:37;13.70;;;10.73;;
1258;SDS011;619;51.472;6.628;2023-04-06T07:43:05;15.53;;;12.30;;
1258;SDS011;619;51.472;6.628;2023-04-06T07:45:31;13.80;;;11.17;;
1258;SDS011;619;51.472;6.628;2023-04-06T07:47:57;14.53;;;11.73;;
1258;SDS011;619;51.472;6.628;2023-04-06T07:50:22;15.77;;;12.40;;
1258;SDS011;619;51.472;6.628;2023-04-06T07:52:48;13.70;;;12.30;;
1258;SDS011;619;51.472;6.628;2023-04-06T07:55:16;14.50;;;12.87;;
1258;SDS011;619;51.472;6.628;2023-04-06T07:57:42;14.77;;;12.53;;
1258;SDS011;619;51.472;6.628;2023-04-06T08:00:10;16.63;;;12.97;;
1258;SDS011;619;51.472;6.628;2023-04-06T08:02:36;15.73;;;12.47;;
1258;SDS011;619;51.472;6.628;2023-04-06T08:05:04;15.40;;;12.67;;
1258;SDS011;619;51.472;6.628;2023-04-06T08:07:30;19.00;;;11.97;;
1258;SDS011;619;51.472;6.628;2023-04-06T08:09:56;14.13;;;12.53;;
1258;SDS011;619;51.472;6.628;2023-04-06T08:12:24;11.90;;;10.60;;
1258;SDS011;619;51.472;6.628;2023-04-06T08:14:50;14.13;;;12.63;;
1258;SDS011;619;51.472;6.628;2023-04-06T08:17:18;17.27;;;12.03;;
1258;SDS011;619;51.472;6.628;2023-04-06T08:19:43;15.13;;;12.73;;
1258;SDS011;619;51.472;6.628;2023-04-06T08:22:11;19.03;;;12.77;;
1258;SDS011;619;51.472;6.628;2023-04-06T08:24:37;15.30;;;13.70;;
1258;SDS011;619;51.472;6.628;2023-04-06T08:27:03;27.13;;;13.90;;
1258;SDS011;619;51.472;6.628;2023-04-06T08:29:28;17.20;;;14.27;;
1258;SDS011;619;51.472;6.628;2023-04-06T08:31:54;15.40;;;13.27;;
1258;SDS011;619;51.472;6.628;2023-04-06T08:34:20;17.33;;;14.90;;
1258;SDS011;619;51.472;6.628;2023-04-06T08:36:46;17.03;;;14.33;;
1258;SDS011;619;51.472;6.628;2023-04-06T08:39:12;16.20;;;13.13;;
1258;SDS011;619;51.472;6.628;2023-04-06T08:41:43;17.03;;;13.03;;
1258;SDS011;619;51.472;6.628;2023-04-06T08:44:09;15.10;;;12.60;;
1258;SDS011;619;51.472;6.628;2023-04-06T08:46:39;16.90;;;13.30;;
1258;SDS011;619;51.472;6.628;2023-04-06T08:49:09;16.90;;;13.80;;
1258;SDS011;619;51.472;6.628;2023-04-06T08:51:36;20.00;;;13.57;;
1258;SDS011;619;51.472;6.628;2023-04-06T08:54:05;16.90;;;13.73;;
1258;SDS011;619;51.472;6.628;2023-04-06T08:56:31;17.07;;;13.83;;
1258;SDS011;619;51.472;6.628;2023-04-06T08:58:56;15.73;;;14.03;;
1258;SDS011;619;51.472;6.628;2023-04-06T09:01:24;15.87;;;13.37;;
1258;SDS011;619;51.472;6.628;2023-04-06T09:03:51;17.23;;;13.80;;
1258;SDS011;619;51.472;6.628;2023-04-06T09:06:24;18.67;;;14.00;;
1258;SDS011;619;51.472;6.628;2023-04-06T09:08:55;16.20;;;14.50;;
1258;SDS011;619;51.472;6.628;2023-04-06T09:11:23;17.67;;;15.00;;
1258;SDS011;619;51.472;6.628;2023-04-06T09:13:52;15.60;;;13.90;;
1258;SDS011;619;51.472;6.628;2023-04-06T09:16:20;18.10;;;16.20;;
1258;SDS011;619;51.472;6.628;2023-04-06T09:18:46;19.30;;;16.27;;
1258;SDS011;619;51.472;6.628;2023-04-06T09:21:12;18.93;;;15.10;;
1258;SDS011;619;51.472;6.628;2023-04-06T09:23:44;22.63;;;16.23;;
1258;SDS011;619;51.472;6.628;2023-04-06T09:33:47;19.20;;;15.70;;
1258;SDS011;619;51.472;6.628;2023-04-06T09:36:13;18.47;;;14.97;;
1258;SDS011;619;51.472;6.628;2023-04-06T09:38:59;18.60;;;14.67;;
1258;SDS011;619;51.472;6.628;2023-04-06T09:41:32;20.97;;;16.70;;
1258;SDS011;619;51.472;6.628;2023-04-06T09:46:31;19.30;;;15.77;;
1258;SDS011;619;51.472;6.628;2023-04-06T09:49:01;18.87;;;15.90;;
1258;SDS011;619;51.472;6.628;2023-04-06T09:51:28;21.07;;;17.43;;
1258;SDS011;619;51.472;6.628;2023-04-06T09:54:04;21.47;;;18.20;;
1258;SDS011;619;51.472;6.628;2023-04-06T09:56:31;20.93;;;16.13;;
1258;SDS011;619;51.472;6.628;2023-04-06T09:59:08;17.70;;;15.47;;
1258;SDS011;619;51.472;6.628;2023-04-06T10:01:38;15.67;;;13.50;;
1258;SDS011;619;51.472;6.628;2023-04-06T10:04:09;17.37;;;15.43;;
1258;SDS011;619;51.472;6.628;2023-04-06T10:06:46;18.43;;;15.60;;
1258;SDS011;619;51.472;6.628;2023-04-06T10:09:20;17.47;;;15.17;;
1258;SDS011;619;51.472;6.628;2023-04-06T10:11:50;18.37;;;14.90;;
1258;SDS011;619;51.472;6.628;2023-04-06T10:14:16;21.97;;;15.30;;
1258;SDS011;619;51.472;6.628;2023-04-06T10:16:44;16.50;;;13.13;;
1258;SDS011;619;51.472;6.628;2023-04-06T10:19:31;15.27;;;13.57;;
1258;SDS011;619;51.472;6.628;2023-04-06T10:22:36;15.63;;;13.70;;
1258;SDS011;619;51.472;6.628;2023-04-06T10:25:17;17.07;;;14.20;;
1258;SDS011;619;51.472;6.628;2023-04-06T10:27:58;16.87;;;14.63;;
1258;SDS011;619;51.472;6.628;2023-04-06T10:30:29;17.93;;;15.17;;
1258;SDS011;619;51.472;6.628;2023-04-06T10:32:55;19.77;;;14.37;;
1258;SDS011;619;51.472;6.628;2023-04-06T10:35:21;16.23;;;14.43;;
1258;SDS011;619;51.472;6.628;2023-04-06T10:37:48;16.57;;;14.87;;
1258;SDS011;619;51.472;6.628;2023-04-06T10:40:20;17.27;;;14.40;;
1258;SDS011;619;51.472;6.628;2023-04-06T10:42:53;22.90;;;15.10;;
1258;SDS011;619;51.472;6.628;2023-04-06T10:45:31;20.27;;;14.97;;
1258;SDS011;619;51.472;6.628;2023-04-06T10:47:57;16.80;;;13.37;;
1258;SDS011;619;51.472;6.628;2023-04-06T10:50:27;16.17;;;13.60;;
1258;SDS011;619;51.472;6.628;2023-04-06T10:53:02;16.83;;;14.43;;
1258;SDS011;619;51.472;6.628;2023-04-06T10:55:30;16.97;;;14.67;;
1258;SDS011;619;51.472;6.628;2023-04-06T10:57:56;18.67;;;15.10;;
1258;SDS011;619;51.472;6.628;2023-04-06T11:00:24;16.60;;;14.17;;
1258;SDS011;619;51.472;6.628;2023-04-06T11:02:50;17.50;;;15.70;;
1258;SDS011;619;51.472;6.628;2023-04-06T11:05:19;20.40;;;16.50;;
1258;SDS011;619;51.472;6.628;2023-04-06T11:07:44;16.37;;;14.00;;
1258;SDS011;619;51.472;6.628;2023-04-06T11:10:20;17.60;;;15.77;;
1258;SDS011;619;51.472;6.628;2023-04-06T11:12:52;17.70;;;15.47;;
1258;SDS011;619;51.472;6.628;2023-04-06T11:15:18;20.57;;;16.33;;
1258;SDS011;619;51.472;6.628;2023-04-06T11:17:44;18.03;;;15.93;;
1258;SDS011;619;51.472;6.628;2023-04-06T11:20:11;21.53;;;15.70;;
1258;SDS011;619;51.472;6.628;2023-04-06T11:22:51;19.57;;;15.73;;
1258;SDS011;619;51.472;6.628;2023-04-06T11:25:19;17.93;;;15.53;;
1258;SDS011;619;51.472;6.628;2023-04-06T11:27:46;18.20;;;15.70;;
1258;SDS011;619;51.472;6.628;2023-04-06T11:30:15;23.33;;;15.30;;
1258;SDS011;619;51.472;6.628;2023-04-06T11:32:43;18.03;;;16.03;;
1258;SDS011;619;51.472;6.628;2023-04-06T11:35:19;21.80;;;14.77;;
1258;SDS011;619;51.472;6.628;2023-04-06T11:37:47;18.30;;;15.37;;
1258;SDS011;619;51.472;6.628;2023-04-06T11:40:22;16.47;;;14.57;;
1258;SDS011;619;51.472;6.628;2023-04-06T11:42:53;17.97;;;15.47;;
1258;SDS011;619;51.472;6.628;2023-04-06T11:45:22;18.67;;;15.07;;
1258;SDS011;619;51.472;6.628;2023-04-06T11:47:57;23.10;;;16.27;;
1258;SDS011;619;51.472;6.628;2023-04-06T11:50:24;21.10;;;16.67;;
1258;SDS011;619;51.472;6.628;2023-04-06T11:52:59;18.27;;;15.23;;
1258;SDS011;619;51.472;6.628;2023-04-06T11:55:28;17.70;;;15.80;;
1258;SDS011;619;51.472;6.628;2023-04-06T11:57:54;20.00;;;17.10;;
1258;SDS011;619;51.472;6.628;2023-04-06T12:00:22;19.10;;;16.17;;
1258;SDS011;619;51.472;6.628;2023-04-06T12:02:50;20.03;;;15.53;;
1258;SDS011;619;51.472;6.628;2023-04-06T12:05:21;18.27;;;15.10;;
1258;SDS011;619;51.472;6.628;2023-04-06T12:07:46;17.53;;;15.07;;
1258;SDS011;619;51.472;6.628;2023-04-06T12:10:12;18.57;;;15.13;;
1258;SDS011;619;51.472;6.628;2023-04-06T12:12:40;18.80;;;15.83;;
1258;SDS011;619;51.472;6.628;2023-04-06T12:15:08;20.37;;;15.43;;
1258;SDS011;619;51.472;6.628;2023-04-06T12:17:34;18.00;;;15.30;;
1258;SDS011;619;51.472;6.628;2023-04-06T12:20:00;16.47;;;14.70;;
1258;SDS011;619;51.472;6.628;2023-04-06T12:22:26;14.80;;;13.30;;
1258;SDS011;619;51.472;6.628;2023-04-06T12:24:54;17.70;;;15.83;;
1258;SDS011;619;51.472;6.628;2023-04-06T12:27:20;16.80;;;14.93;;
1258;SDS011;619;51.472;6.628;2023-04-06T12:29:46;17.20;;;15.50;;
1258;SDS011;619;51.472;6.628;2023-04-06T12:32:12;17.33;;;14.03;;
1258;SDS011;619;51.472;6.628;2023-04-06T12:34:38;13.00;;;11.50;;
1258;SDS011;619;51.472;6.628;2023-04-06T12:37:03;11.30;;;10.20;;
1258;SDS011;619;51.472;6.628;2023-04-06T12:39:29;13.23;;;9.63;;
1258;SDS011;619;51.472;6.628;2023-04-06T12:41:57;12.37;;;9.77;;
1258;SDS011;619;51.472;6.628;2023-04-06T12:44:22;11.17;;;10.07;;
1258;SDS011;619;51.472;6.628;2023-04-06T12:46:48;17.63;;;9.50;;
1258;SDS011;619;51.472;6.628;2023-04-06T12:49:15;11.53;;;10.23;;
1258;SDS011;619;51.472;6.628;2023-04-06T12:51:43;11.60;;;10.40;;
1258;SDS011;619;51.472;6.628;2023-04-06T12:54:11;10.20;;;9.20;;
1258;SDS011;619;51.472;6.628;2023-04-06T12:56:37;9.43;;;8.53;;
1258;SDS011;619;51.472;6.628;2023-04-06T12:59:06;9.73;;;7.87;;
1258;SDS011;619;51.472;6.628;2023-04-06T13:01:34;9.17;;;7.73;;
1258;SDS011;619;51.472;6.628;2023-04-06T13:04:02;11.57;;;8.53;;
1258;SDS011;619;51.472;6.628;2023-04-06T13:06:27;17.43;;;8.67;;
1258;SDS011;619;51.472;6.628;2023-04-06T13:08:54;7.23;;;6.53;;
1258;SDS011;619;51.472;6.628;2023-04-06T13:11:22;7.63;;;6.77;;
1258;SDS011;619;51.472;6.628;2023-04-06T13:13:51;7.63;;;6.60;;
1258;SDS011;619;51.472;6.628;2023-04-06T13:16:16;9.43;;;8.10;;
1258;SDS011;619;51.472;6.628;2023-04-06T13:18:44;10.27;;;6.40;;
1258;SDS011;619;51.472;6.628;2023-04-06T13:21:15;82.90;;;15.70;;
1258;SDS011;619;51.472;6.628;2023-04-06T13:23:48;24.13;;;7.57;;
1258;SDS011;619;51.472;6.628;2023-04-06T13:26:16;8.70;;;7.20;;
1258;SDS011;619;51.472;6.628;2023-04-06T13:28:44;8.23;;;7.43;;
1258;SDS011;619;51.472;6.628;2023-04-06T13:31:10;9.03;;;7.87;;
1258;SDS011;619;51.472;6.628;2023-04-06T13:33:40;8.93;;;8.03;;
1258;SDS011;619;51.472;6.628;2023-04-06T13:36:07;11.73;;;6.60;;
1258;SDS011;619;51.472;6.628;2023-04-06T13:38:36;7.73;;;7.03;;
1258;SDS011;619;51.472;6.628;2023-04-06T13:41:03;8.37;;;7.53;;
1258;SDS011;619;51.472;6.628;2023-04-06T13:43:29;10.03;;;7.90;;
1258;SDS011;619;51.472;6.628;2023-04-06T13:45:57;9.20;;;7.77;;
1258;SDS011;619;51.472;6.628;2023-04-06T13:48:25;9.13;;;8.17;;
1258;SDS011;619;51.472;6.628;2023-04-06T13:50:51;11.40;;;7.50;;
1258;SDS011;619;51.472;6.628;2023-04-06T13:53:20;9.33;;;7.73;;
1258;SDS011;619;51.472;6.628;2023-04-06T13:55:54;16.20;;;9.40;;
1258;SDS011;619;51.472;6.628;2023-04-06T13:58:20;9.07;;;7.60;;
1258;SDS011;619;51.472;6.628;2023-04-06T14:00:48;9.10;;;8.17;;
1258;SDS011;619;51.472;6.628;2023-04-06T14:03:18;9.30;;;7.93;;
1258;SDS011;619;51.472;6.628;2023-04-06T14:05:46;10.17;;;8.10;;
1258;SDS011;619;51.472;6.628;2023-04-06T14:08:12;12.20;;;8.00;;
1258;SDS011;619;51.472;6.628;2023-04-06T14:10:40;8.77;;;7.90;;
1258;SDS011;619;51.472;6.628;2023-04-06T14:13:07;9.13;;;8.20;;
1258;SDS011;619;51.472;6.628;2023-04-06T14:15:35;7.83;;;7.03;;
1258;SDS011;619;51.472;6.628;2023-04-06T14:18:03;9.60;;;8.33;;
1258;SDS011;619;51.472;6.628;2023-04-06T14:20:33;8.83;;;7.93;;
1258;SDS011;619;51.472;6.628;2023-04-06T14:23:03;8.90;;;7.90;;
1258;SDS011;619;51.472;6.628;2023-04-06T14:25:33;10.50;;;9.50;;
1258;SDS011;619;51.472;6.628;2023-04-06T14:27:59;9.20;;;8.30;;
1258;SDS011;619;51.472;6.628;2023-04-06T14:30:29;10.13;;;9.13;;
1258;SDS011;619;51.472;6.628;2023-04-06T14:33:00;9.33;;;8.43;;
1258;SDS011;619;51.472;6.628;2023-04-06T14:35:25;9.40;;;8.50;;
1258;SDS011;619;51.472;6.628;2023-04-06T14:37:52;9.67;;;8.67;;
1258;SDS011;619;51.472;6.628;2023-04-06T14:40:24;8.87;;;7.97;;
1258;SDS011;619;51.472;6.628;2023-04-06T14:42:50;10.20;;;8.87;;
1258;SDS011;619;51.472;6.628;2023-04-06T14:45:19;12.70;;;9.53;;
1258;SDS011;619;51.472;6.628;2023-04-06T14:47:46;10.43;;;9.30;;
1258;SDS011;619;51.472;6.628;2023-04-06T14:50:12;10.60;;;9.17;;
1258;SDS011;619;51.472;6.628;2023-04-06T14:52:37;9.73;;;8.57;;
1258;SDS011;619;51.472;6.628;2023-04-06T14:55:03;10.33;;;9.17;;
1258;SDS011;619;51.472;6.628;2023-04-06T14:57:29;14.27;;;9.07;;
1258;SDS011;619;51.472;6.628;2023-04-06T14:59:57;10.37;;;9.27;;
1258;SDS011;619;51.472;6.628;2023-04-06T15:02:23;9.80;;;8.50;;
1258;SDS011;619;51.472;6.628;2023-04-06T15:04:48;11.03;;;8.80;;
1258;SDS011;619;51.472;6.628;2023-04-06T15:07:14;10.43;;;9.20;;
1258;SDS011;619;51.472;6.628;2023-04-06T15:09:40;12.73;;;8.60;;
1258;SDS011;619;51.472;6.628;2023-04-06T15:12:05;14.87;;;9.37;;
1258;SDS011;619;51.472;6.628;2023-04-06T15:14:33;10.73;;;8.50;;
1258;SDS011;619;51.472;6.628;2023-04-06T15:17:01;11.90;;;10.63;;